sensor_id;sensor_type;location;lat;lon;timestamp;pressure;altitude;pressure_sealevel;temperature
14023;BMP180;7086;48.116;11.580;2024-01-16T00:02:22;94513.00;;;3.00
14023;BMP180;7086;48.116;11.580;2024-01-16T00:04:50;94514.00;;;3.00
14023;BMP180;7086;48.116;11.580;2024-01-16T00:07:18;94521.00;;;3.00
14023;BMP180;7086;48.116;11.580;2024-01-16T00:09:45;94519.00;;;3.10
14023;BMP180;7086;48.116;11.580;2024-01-16T00:12:13;94483.00;;;3.10
14023;BMP180;7086;48.116;11.580;2024-01-16T00:14:41;94474.00;;;3.10
14023;BMP180;7086;48.116;11.580;2024-01-16T00:17:08;94466.00;;;3.10
14023;BMP180;7086;48.116;11.580;2024-01-16T00:19:38;94526.00;;;3.10
14023;BMP180;7086;48.116;11.580;2024-01-16T00:22:07;94537.00;;;3.10
14023;BMP180;7086;48.116;11.580;2024-01-16T00:24:34;94514.00;;;3.10
14023;BMP180;7086;48.116;11.580;2024-01-16T00:27:02;94545.00;;;3.20
14023;BMP180;7086;48.116;11.580;2024-01-16T00:29:30;94547.00;;;3.20
14023;BMP180;7086;48.116;11.580;2024-01-16T00:31:57;94506.00;;;3.20
14023;BMP180;7086;48.116;11.580;2024-01-16T00:34:25;94541.00;;;3.10
14023;BMP180;7086;48.116;11.580;2024-01-16T00:36:54;94527.00;;;3.10
14023;BMP180;7086;48.116;11.580;2024-01-16T00:39:21;94543.00;;;3.10
14023;BMP180;7086;48.116;11.580;2024-01-16T00:41:49;94550.00;;;3.10
14023;BMP180;7086;48.116;11.580;2024-01-16T00:44:16;94550.00;;;3.10
14023;BMP180;7086;48.116;11.580;2024-01-16T00:46:44;94543.00;;;3.10
14023;BMP180;7086;48.116;11.580;2024-01-16T00:49:11;94530.00;;;3.10
14023;BMP180;7086;48.116;11.580;2024-01-16T00:51:38;94522.00;;;3.10
14023;BMP180;7086;48.116;11.580;2024-01-16T00:54:07;94545.00;;;3.10
14023;BMP180;7086;48.116;11.580;2024-01-16T00:56:36;94562.00;;;3.10
14023;BMP180;7086;48.116;11.580;2024-01-16T00:59:03;94560.00;;;3.10
14023;BMP180;7086;48.116;11.580;2024-01-16T01:01:31;94539.00;;;3.00
14023;BMP180;7086;48.116;11.580;2024-01-16T01:03:58;94561.00;;;3.00
14023;BMP180;7086;48.116;11.580;2024-01-16T01:06:26;94574.00;;;3.00
14023;BMP180;7086;48.116;11.580;2024-01-16T01:08:53;94558.00;;;3.00
14023;BMP180;7086;48.116;11.580;2024-01-16T01:11:22;94572.00;;;3.00
14023;BMP180;7086;48.116;11.580;2024-01-16T01:13:49;94584.00;;;3.00
14023;BMP180;7086;48.116;11.580;2024-01-16T01:16:17;94565.00;;;3.00
14023;BMP180;7086;48.116;11.580;2024-01-16T01:18:44;94532.00;;;2.90
14023;BMP180;7086;48.116;11.580;2024-01-16T01:21:12;94456.00;;;2.80
14023;BMP180;7086;48.116;11.580;2024-01-16T01:23:39;94579.00;;;2.80
14023;BMP180;7086;48.116;11.580;2024-01-16T01:26:07;94594.00;;;2.70
14023;BMP180;7086;48.116;11.580;2024-01-16T01:28:36;94584.00;;;2.70
14023;BMP180;7086;48.116;11.580;2024-01-16T01:31:08;94592.00;;;2.60
14023;BMP180;7086;48.116;11.580;2024-01-16T01:33:36;94589.00;;;2.60
14023;BMP180;7086;48.116;11.580;2024-01-16T01:36:03;94603.00;;;2.60
14023;BMP180;7086;48.116;11.580;2024-01-16T01:38:31;94555.00;;;2.50
14023;BMP180;7086;48.116;11.580;2024-01-16T01:40:58;94601.00;;;2.50
14023;BMP180;7086;48.116;11.580;2024-01-16T01:43:26;94508.00;;;2.50
14023;BMP180;7086;48.116;11.580;2024-01-16T01:46:09;94621.00;;;2.40
14023;BMP180;7086;48.116;11.580;2024-01-16T01:48:40;94612.00;;;2.40
14023;BMP180;7086;48.116;11.580;2024-01-16T01:51:08;94562.00;;;2.40
14023;BMP180;7086;48.116;11.580;2024-01-16T01:53:39;94617.00;;;2.40
14023;BMP180;7086;48.116;11.580;2024-01-16T01:56:11;94612.00;;;2.40
14023;BMP180;7086;48.116;11.580;2024-01-16T01:58:43;94515.00;;;2.40
14023;BMP180;7086;48.116;11.580;2024-01-16T02:01:15;94632.00;;;2.50
14023;BMP180;7086;48.116;11.580;2024-01-16T02:03:45;94580.00;;;2.50
14023;BMP180;7086;48.116;11.580;2024-01-16T02:06:13;94507.00;;;2.60
14023;BMP180;7086;48.116;11.580;2024-01-16T02:08:41;94616.00;;;2.60
14023;BMP180;7086;48.116;11.580;2024-01-16T02:11:08;94627.00;;;2.60
14023;BMP180;7086;48.116;11.580;2024-01-16T02:13:38;94567.00;;;2.60
14023;BMP180;7086;48.116;11.580;2024-01-16T02:16:06;94642.00;;;2.70
14023;BMP180;7086;48.116;11.580;2024-01-16T02:18:45;94637.00;;;2.70
14023;BMP180;7086;48.116;11.580;2024-01-16T02:21:17;94630.00;;;2.70
14023;BMP180;7086;48.116;11.580;2024-01-16T02:23:48;94646.00;;;2.70
14023;BMP180;7086;48.116;11.580;2024-01-16T02:26:16;94632.00;;;2.70
14023;BMP180;7086;48.116;11.580;2024-01-16T02:28:44;94619.00;;;2.70
14023;BMP180;7086;48.116;11.580;2024-01-16T02:31:11;94633.00;;;2.80
14023;BMP180;7086;48.116;11.580;2024-01-16T02:33:39;94627.00;;;2.70
14023;BMP180;7086;48.116;11.580;2024-01-16T02:36:07;94632.00;;;2.70
14023;BMP180;7086;48.116;11.580;2024-01-16T02:38:35;94633.00;;;2.70
14023;BMP180;7086;48.116;11.580;2024-01-16T02:41:04;94641.00;;;2.70
14023;BMP180;7086;48.116;11.580;2024-01-16T02:43:32;94618.00;;;2.60
14023;BMP180;7086;48.116;11.580;2024-01-16T02:45:59;94630.00;;;2.60
14023;BMP180;7086;48.116;11.580;2024-01-16T02:48:27;94579.00;;;2.50
14023;BMP180;7086;48.116;11.580;2024-01-16T02:50:54;94649.00;;;2.30
14023;BMP180;7086;48.116;11.580;2024-01-16T02:53:22;94645.00;;;2.40
14023;BMP180;7086;48.116;11.580;2024-01-16T02:55:52;94644.00;;;2.40
14023;BMP180;7086;48.116;11.580;2024-01-16T02:58:20;94611.00;;;2.40
14023;BMP180;7086;48.116;11.580;2024-01-16T03:00:48;94642.00;;;2.30
14023;BMP180;7086;48.116;11.580;2024-01-16T03:03:16;94645.00;;;2.30
14023;BMP180;7086;48.116;11.580;2024-01-16T03:05:44;94644.00;;;2.30
14023;BMP180;7086;48.116;11.580;2024-01-16T03:08:12;94640.00;;;2.30
14023;BMP180;7086;48.116;11.580;2024-01-16T03:10:40;94621.00;;;2.20
14023;BMP180;7086;48.116;11.580;2024-01-16T03:13:07;94670.00;;;2.20
14023;BMP180;7086;48.116;11.580;2024-01-16T03:15:36;94645.00;;;2.20
14023;BMP180;7086;48.116;11.580;2024-01-16T03:18:04;94609.00;;;2.20
14023;BMP180;7086;48.116;11.580;2024-01-16T03:20:32;94655.00;;;2.10
14023;BMP180;7086;48.116;11.580;2024-01-16T03:22:59;94666.00;;;2.10
14023;BMP180;7086;48.116;11.580;2024-01-16T03:25:27;94659.00;;;2.10
14023;BMP180;7086;48.116;11.580;2024-01-16T03:27:55;94658.00;;;2.00
14023;BMP180;7086;48.116;11.580;2024-01-16T03:30:22;94658.00;;;2.00
14023;BMP180;7086;48.116;11.580;2024-01-16T03:32:51;94663.00;;;2.00
14023;BMP180;7086;48.116;11.580;2024-01-16T03:35:19;94667.00;;;2.00
14023;BMP180;7086;48.116;11.580;2024-01-16T03:37:46;94673.00;;;2.00
14023;BMP180;7086;48.116;11.580;2024-01-16T03:40:14;94668.00;;;1.90
14023;BMP180;7086;48.116;11.580;2024-01-16T03:42:42;94602.00;;;1.90
14023;BMP180;7086;48.116;11.580;2024-01-16T03:45:10;94668.00;;;1.90
14023;BMP180;7086;48.116;11.580;2024-01-16T03:47:37;94637.00;;;1.90
14023;BMP180;7086;48.116;11.580;2024-01-16T03:50:07;94653.00;;;1.90
14023;BMP180;7086;48.116;11.580;2024-01-16T03:52:35;94644.00;;;1.80
14023;BMP180;7086;48.116;11.580;2024-01-16T03:55:03;94658.00;;;1.90
14023;BMP180;7086;48.116;11.580;2024-01-16T03:57:31;94526.00;;;1.90
14023;BMP180;7086;48.116;11.580;2024-01-16T03:59:59;94571.00;;;1.90
14023;BMP180;7086;48.116;11.580;2024-01-16T04:02:27;94653.00;;;1.90
14023;BMP180;7086;48.116;11.580;2024-01-16T04:04:56;94581.00;;;1.90
14023;BMP180;7086;48.116;11.580;2024-01-16T04:07:26;94644.00;;;1.90
14023;BMP180;7086;48.116;11.580;2024-01-16T04:09:54;94664.00;;;1.90
14023;BMP180;7086;48.116;11.580;2024-01-16T04:12:22;94538.00;;;1.90
14023;BMP180;7086;48.116;11.580;2024-01-16T04:14:49;94584.00;;;2.00
14023;BMP180;7086;48.116;11.580;2024-01-16T04:17:17;94646.00;;;2.00
14023;BMP180;7086;48.116;11.580;2024-01-16T04:19:44;94647.00;;;2.00
14023;BMP180;7086;48.116;11.580;2024-01-16T04:22:12;94640.00;;;2.10
14023;BMP180;7086;48.116;11.580;2024-01-16T04:24:40;94632.00;;;2.10
14023;BMP180;7086;48.116;11.580;2024-01-16T04:27:10;94596.00;;;2.10
14023;BMP180;7086;48.116;11.580;2024-01-16T04:29:37;94573.00;;;2.20
14023;BMP180;7086;48.116;11.580;2024-01-16T04:32:05;94594.00;;;2.20
14023;BMP180;7086;48.116;11.580;2024-01-16T04:34:32;94645.00;;;2.20
14023;BMP180;7086;48.116;11.580;2024-01-16T04:37:00;94643.00;;;2.20
14023;BMP180;7086;48.116;11.580;2024-01-16T04:39:29;94627.00;;;2.20
14023;BMP180;7086;48.116;11.580;2024-01-16T04:41:59;94606.00;;;2.20
14023;BMP180;7086;48.116;11.580;2024-01-16T04:44:26;94636.00;;;2.20
14023;BMP180;7086;48.116;11.580;2024-01-16T04:46:54;94657.00;;;2.20
14023;BMP180;7086;48.116;11.580;2024-01-16T04:49:21;94517.00;;;2.20
14023;BMP180;7086;48.116;11.580;2024-01-16T04:51:50;94587.00;;;2.20
14023;BMP180;7086;48.116;11.580;2024-01-16T04:54:20;94651.00;;;2.20
14023;BMP180;7086;48.116;11.580;2024-01-16T04:56:47;94605.00;;;2.20
14023;BMP180;7086;48.116;11.580;2024-01-16T04:59:16;94653.00;;;2.20
14023;BMP180;7086;48.116;11.580;2024-01-16T05:01:44;94610.00;;;2.10
14023;BMP180;7086;48.116;11.580;2024-01-16T05:04:12;94590.00;;;2.10
14023;BMP180;7086;48.116;11.580;2024-01-16T05:06:40;94637.00;;;2.10
14023;BMP180;7086;48.116;11.580;2024-01-16T05:09:08;94641.00;;;2.10
14023;BMP180;7086;48.116;11.580;2024-01-16T05:11:36;94638.00;;;2.00
14023;BMP180;7086;48.116;11.580;2024-01-16T05:14:03;94623.00;;;2.00
14023;BMP180;7086;48.116;11.580;2024-01-16T05:16:32;94583.00;;;1.90
14023;BMP180;7086;48.116;11.580;2024-01-16T05:19:00;94643.00;;;2.00
14023;BMP180;7086;48.116;11.580;2024-01-16T05:21:28;94655.00;;;2.00
14023;BMP180;7086;48.116;11.580;2024-01-16T05:23:55;94652.00;;;1.90
14023;BMP180;7086;48.116;11.580;2024-01-16T05:26:23;94648.00;;;1.90
14023;BMP180;7086;48.116;11.580;2024-01-16T05:28:51;94645.00;;;1.90
14023;BMP180;7086;48.116;11.580;2024-01-16T05:31:19;94645.00;;;1.90
14023;BMP180;7086;48.116;11.580;2024-01-16T05:33:48;94634.00;;;1.90
14023;BMP180;7086;48.116;11.580;2024-01-16T05:36:16;94655.00;;;1.80
14023;BMP180;7086;48.116;11.580;2024-01-16T05:38:44;94642.00;;;1.80
14023;BMP180;7086;48.116;11.580;2024-01-16T05:41:11;94642.00;;;1.80
14023;BMP180;7086;48.116;11.580;2024-01-16T05:43:38;94628.00;;;1.80
14023;BMP180;7086;48.116;11.580;2024-01-16T05:46:06;94577.00;;;1.70
14023;BMP180;7086;48.116;11.580;2024-01-16T05:48:33;94658.00;;;1.70
14023;BMP180;7086;48.116;11.580;2024-01-16T05:51:02;94634.00;;;1.50
14023;BMP180;7086;48.116;11.580;2024-01-16T05:53:31;94638.00;;;1.70
14023;BMP180;7086;48.116;11.580;2024-01-16T05:55:59;94633.00;;;1.60
14023;BMP180;7086;48.116;11.580;2024-01-16T05:58:26;94651.00;;;1.60
14023;BMP180;7086;48.116;11.580;2024-01-16T06:00:54;94617.00;;;1.60
14023;BMP180;7086;48.116;11.580;2024-01-16T06:03:21;94665.00;;;1.60
14023;BMP180;7086;48.116;11.580;2024-01-16T06:05:49;94598.00;;;1.60
14023;BMP180;7086;48.116;11.580;2024-01-16T06:08:18;94671.00;;;1.60
14023;BMP180;7086;48.116;11.580;2024-01-16T06:10:46;94632.00;;;1.60
14023;BMP180;7086;48.116;11.580;2024-01-16T06:13:14;94665.00;;;1.60
14023;BMP180;7086;48.116;11.580;2024-01-16T06:15:41;94633.00;;;1.60
14023;BMP180;7086;48.116;11.580;2024-01-16T06:18:09;94504.00;;;1.50
14023;BMP180;7086;48.116;11.580;2024-01-16T06:20:36;94649.00;;;1.60
14023;BMP180;7086;48.116;11.580;2024-01-16T06:23:04;94655.00;;;1.60
14023;BMP180;7086;48.116;11.580;2024-01-16T06:25:33;94635.00;;;1.60
14023;BMP180;7086;48.116;11.580;2024-01-16T06:28:00;94611.00;;;1.60
14023;BMP180;7086;48.116;11.580;2024-01-16T06:30:29;94654.00;;;1.60
14023;BMP180;7086;48.116;11.580;2024-01-16T06:32:57;94553.00;;;1.60
14023;BMP180;7086;48.116;11.580;2024-01-16T06:35:24;94635.00;;;1.60
14023;BMP180;7086;48.116;11.580;2024-01-16T06:37:52;94637.00;;;1.70
14023;BMP180;7086;48.116;11.580;2024-01-16T06:40:20;94575.00;;;1.20
14023;BMP180;7086;48.116;11.580;2024-01-16T06:42:49;94503.00;;;1.90
14023;BMP180;7086;48.116;11.580;2024-01-16T06:45:17;94635.00;;;2.00
14023;BMP180;7086;48.116;11.580;2024-01-16T06:47:45;94604.00;;;2.10
14023;BMP180;7086;48.116;11.580;2024-01-16T06:50:13;94611.00;;;2.10
14023;BMP180;7086;48.116;11.580;2024-01-16T06:52:40;94595.00;;;2.20
14023;BMP180;7086;48.116;11.580;2024-01-16T06:55:08;94503.00;;;2.10
14023;BMP180;7086;48.116;11.580;2024-01-16T06:57:36;94641.00;;;2.10
14023;BMP180;7086;48.116;11.580;2024-01-16T07:00:07;94622.00;;;2.20
14023;BMP180;7086;48.116;11.580;2024-01-16T07:02:34;94609.00;;;2.20
14023;BMP180;7086;48.116;11.580;2024-01-16T07:05:03;94641.00;;;2.20
14023;BMP180;7086;48.116;11.580;2024-01-16T07:07:31;94635.00;;;2.20
14023;BMP180;7086;48.116;11.580;2024-01-16T07:09:58;94644.00;;;2.20
14023;BMP180;7086;48.116;11.580;2024-01-16T07:12:26;94601.00;;;2.20
14023;BMP180;7086;48.116;11.580;2024-01-16T07:14:54;94620.00;;;2.20
14023;BMP180;7086;48.116;11.580;2024-01-16T07:17:24;94651.00;;;2.20
14023;BMP180;7086;48.116;11.580;2024-01-16T07:19:51;94624.00;;;2.30
14023;BMP180;7086;48.116;11.580;2024-01-16T07:22:19;94638.00;;;2.30
14023;BMP180;7086;48.116;11.580;2024-01-16T07:24:47;94632.00;;;2.30
14023;BMP180;7086;48.116;11.580;2024-01-16T07:27:15;94618.00;;;2.40
14023;BMP180;7086;48.116;11.580;2024-01-16T07:29:43;94661.00;;;2.30
14023;BMP180;7086;48.116;11.580;2024-01-16T07:32:11;94561.00;;;2.40
14023;BMP180;7086;48.116;11.580;2024-01-16T07:34:41;94525.00;;;2.40
14023;BMP180;7086;48.116;11.580;2024-01-16T07:37:09;94573.00;;;2.00
14023;BMP180;7086;48.116;11.580;2024-01-16T07:39:36;94658.00;;;2.40
14023;BMP180;7086;48.116;11.580;2024-01-16T07:42:05;94667.00;;;2.40
14023;BMP180;7086;48.116;11.580;2024-01-16T07:44:34;94566.00;;;2.40
14023;BMP180;7086;48.116;11.580;2024-01-16T07:47:01;94644.00;;;2.40
14023;BMP180;7086;48.116;11.580;2024-01-16T07:49:29;94655.00;;;2.40
14023;BMP180;7086;48.116;11.580;2024-01-16T07:51:57;94598.00;;;2.10
14023;BMP180;7086;48.116;11.580;2024-01-16T07:54:25;94543.00;;;2.40
14023;BMP180;7086;48.116;11.580;2024-01-16T07:56:53;94565.00;;;2.30
14023;BMP180;7086;48.116;11.580;2024-01-16T07:59:21;94559.00;;;2.40
14023;BMP180;7086;48.116;11.580;2024-01-16T08:01:49;94650.00;;;2.50
14023;BMP180;7086;48.116;11.580;2024-01-16T08:04:17;94639.00;;;2.10
14023;BMP180;7086;48.116;11.580;2024-01-16T08:06:46;94481.00;;;2.30
14023;BMP180;7086;48.116;11.580;2024-01-16T08:09:16;94536.00;;;2.60
14023;BMP180;7086;48.116;11.580;2024-01-16T08:11:45;94518.00;;;2.60
14023;BMP180;7086;48.116;11.580;2024-01-16T08:14:18;94657.00;;;2.70
14023;BMP180;7086;48.116;11.580;2024-01-16T08:16:46;94541.00;;;2.70
14023;BMP180;7086;48.116;11.580;2024-01-16T08:19:14;94607.00;;;2.60
14023;BMP180;7086;48.116;11.580;2024-01-16T08:21:45;94658.00;;;2.80
14023;BMP180;7086;48.116;11.580;2024-01-16T08:24:17;94668.00;;;2.90
14023;BMP180;7086;48.116;11.580;2024-01-16T08:26:45;94679.00;;;3.00
14023;BMP180;7086;48.116;11.580;2024-01-16T08:29:15;94680.00;;;3.10
14023;BMP180;7086;48.116;11.580;2024-01-16T08:31:43;94629.00;;;3.30
14023;BMP180;7086;48.116;11.580;2024-01-16T08:34:11;94666.00;;;3.50
14023;BMP180;7086;48.116;11.580;2024-01-16T08:36:40;94566.00;;;3.70
14023;BMP180;7086;48.116;11.580;2024-01-16T08:39:09;94557.00;;;3.80
14023;BMP180;7086;48.116;11.580;2024-01-16T08:41:41;94614.00;;;4.00
14023;BMP180;7086;48.116;11.580;2024-01-16T08:44:09;94655.00;;;4.10
14023;BMP180;7086;48.116;11.580;2024-01-16T08:46:36;94643.00;;;4.20
14023;BMP180;7086;48.116;11.580;2024-01-16T08:49:04;94624.00;;;4.40
14023;BMP180;7086;48.116;11.580;2024-01-16T08:51:32;94655.00;;;4.50
14023;BMP180;7086;48.116;11.580;2024-01-16T08:54:00;94682.00;;;4.60
14023;BMP180;7086;48.116;11.580;2024-01-16T08:56:28;94536.00;;;4.60
14023;BMP180;7086;48.116;11.580;2024-01-16T08:58:57;94652.00;;;4.70
14023;BMP180;7086;48.116;11.580;2024-01-16T09:01:24;94652.00;;;4.80
14023;BMP180;7086;48.116;11.580;2024-01-16T09:03:52;94643.00;;;4.90
14023;BMP180;7086;48.116;11.580;2024-01-16T09:06:21;94629.00;;;5.00
14023;BMP180;7086;48.116;11.580;2024-01-16T09:08:50;94513.00;;;5.10
14023;BMP180;7086;48.116;11.580;2024-01-16T09:11:19;94570.00;;;5.20
14023;BMP180;7086;48.116;11.580;2024-01-16T09:13:46;94614.00;;;5.30
14023;BMP180;7086;48.116;11.580;2024-01-16T09:16:16;94603.00;;;5.40
14023;BMP180;7086;48.116;11.580;2024-01-16T09:18:44;94587.00;;;5.50
14023;BMP180;7086;48.116;11.580;2024-01-16T09:21:16;94559.00;;;5.60
14023;BMP180;7086;48.116;11.580;2024-01-16T09:23:44;94571.00;;;5.60
14023;BMP180;7086;48.116;11.580;2024-01-16T09:26:12;94614.00;;;5.70
14023;BMP180;7086;48.116;11.580;2024-01-16T09:28:39;94536.00;;;5.70
14023;BMP180;7086;48.116;11.580;2024-01-16T09:31:07;94611.00;;;5.70
14023;BMP180;7086;48.116;11.580;2024-01-16T09:33:36;94617.00;;;5.40
14023;BMP180;7086;48.116;11.580;2024-01-16T09:36:05;94614.00;;;5.80
14023;BMP180;7086;48.116;11.580;2024-01-16T09:38:34;94616.00;;;5.80
14023;BMP180;7086;48.116;11.580;2024-01-16T09:41:03;94577.00;;;5.80
14023;BMP180;7086;48.116;11.580;2024-01-16T09:43:33;94527.00;;;5.40
14023;BMP180;7086;48.116;11.580;2024-01-16T09:46:01;94503.00;;;5.70
14023;BMP180;7086;48.116;11.580;2024-01-16T09:48:32;94555.00;;;5.50
14023;BMP180;7086;48.116;11.580;2024-01-16T09:51:03;94484.00;;;5.90
14023;BMP180;7086;48.116;11.580;2024-01-16T09:53:31;94641.00;;;5.90
14023;BMP180;7086;48.116;11.580;2024-01-16T09:56:03;94548.00;;;5.40
14023;BMP180;7086;48.116;11.580;2024-01-16T09:58:37;94618.00;;;5.50
14023;BMP180;7086;48.116;11.580;2024-01-16T10:01:11;94551.00;;;5.90
14023;BMP180;7086;48.116;11.580;2024-01-16T10:03:45;94645.00;;;5.90
14023;BMP180;7086;48.116;11.580;2024-01-16T10:06:19;94625.00;;;5.90
14023;BMP180;7086;48.116;11.580;2024-01-16T10:08:49;94612.00;;;5.90
14023;BMP180;7086;48.116;11.580;2024-01-16T10:11:17;94600.00;;;6.00
14023;BMP180;7086;48.116;11.580;2024-01-16T10:13:48;94615.00;;;5.50
14023;BMP180;7086;48.116;11.580;2024-01-16T10:16:19;94536.00;;;6.00
14023;BMP180;7086;48.116;11.580;2024-01-16T10:18:49;94627.00;;;6.00
14023;BMP180;7086;48.116;11.580;2024-01-16T10:21:22;94504.00;;;6.00
14023;BMP180;7086;48.116;11.580;2024-01-16T10:24:11;94412.00;;;6.00
14023;BMP180;7086;48.116;11.580;2024-01-16T10:26:40;94536.00;;;5.90
14023;BMP180;7086;48.116;11.580;2024-01-16T10:29:12;94463.00;;;6.20
14023;BMP180;7086;48.116;11.580;2024-01-16T10:31:43;94543.00;;;6.00
14023;BMP180;7086;48.116;11.580;2024-01-16T10:34:21;94588.00;;;6.30
14023;BMP180;7086;48.116;11.580;2024-01-16T10:36:59;94441.00;;;6.40
14023;BMP180;7086;48.116;11.580;2024-01-16T10:39:30;94533.00;;;6.50
14023;BMP180;7086;48.116;11.580;2024-01-16T10:41:58;94573.00;;;6.60
14023;BMP180;7086;48.116;11.580;2024-01-16T10:44:26;94437.00;;;6.70
14023;BMP180;7086;48.116;11.580;2024-01-16T10:47:10;94502.00;;;6.30
14023;BMP180;7086;48.116;11.580;2024-01-16T10:49:43;94535.00;;;6.70
14023;BMP180;7086;48.116;11.580;2024-01-16T10:52:18;94570.00;;;6.90
14023;BMP180;7086;48.116;11.580;2024-01-16T10:54:51;94551.00;;;6.90
14023;BMP180;7086;48.116;11.580;2024-01-16T10:57:23;94400.00;;;6.90
14023;BMP180;7086;48.116;11.580;2024-01-16T11:00:02;94519.00;;;6.90
14023;BMP180;7086;48.116;11.580;2024-01-16T11:02:40;94551.00;;;7.00
14023;BMP180;7086;48.116;11.580;2024-01-16T11:05:14;94563.00;;;6.50
14023;BMP180;7086;48.116;11.580;2024-01-16T11:08:26;94564.00;;;7.20
14023;BMP180;7086;48.116;11.580;2024-01-16T11:11:17;94585.00;;;7.20
14023;BMP180;7086;48.116;11.580;2024-01-16T11:13:52;94577.00;;;6.80
14023;BMP180;7086;48.116;11.580;2024-01-16T11:16:26;94562.00;;;7.50
14023;BMP180;7086;48.116;11.580;2024-01-16T11:19:04;94427.00;;;7.50
14023;BMP180;7086;48.116;11.580;2024-01-16T11:21:40;94415.00;;;7.80
14023;BMP180;7086;48.116;11.580;2024-01-16T11:24:12;94397.00;;;7.70
14023;BMP180;7086;48.116;11.580;2024-01-16T11:26:47;94583.00;;;7.90
14023;BMP180;7086;48.116;11.580;2024-01-16T11:31:48;94512.00;;;8.00
14023;BMP180;7086;48.116;11.580;2024-01-16T11:34:55;94501.00;;;7.80
14023;BMP180;7086;48.116;11.580;2024-01-16T11:37:28;94498.00;;;7.90
14023;BMP180;7086;48.116;11.580;2024-01-16T11:40:24;94542.00;;;7.70
14023;BMP180;7086;48.116;11.580;2024-01-16T11:42:58;94550.00;;;7.90
14023;BMP180;7086;48.116;11.580;2024-01-16T11:45:49;94549.00;;;7.30
14023;BMP180;7086;48.116;11.580;2024-01-16T11:48:23;94514.00;;;7.90
14023;BMP180;7086;48.116;11.580;2024-01-16T11:51:06;94483.00;;;7.80
14023;BMP180;7086;48.116;11.580;2024-01-16T11:53:55;94373.00;;;7.80
14023;BMP180;7086;48.116;11.580;2024-01-16T12:03:00;94432.00;;;7.90
14023;BMP180;7086;48.116;11.580;2024-01-16T12:05:32;94521.00;;;8.00
14023;BMP180;7086;48.116;11.580;2024-01-16T12:10:58;94541.00;;;8.00
14023;BMP180;7086;48.116;11.580;2024-01-16T12:13:35;94491.00;;;8.00
14023;BMP180;7086;48.116;11.580;2024-01-16T12:16:21;94362.00;;;7.70
14023;BMP180;7086;48.116;11.580;2024-01-16T12:19:05;94524.00;;;7.80
14023;BMP180;7086;48.116;11.580;2024-01-16T12:21:43;94357.00;;;7.70
14023;BMP180;7086;48.116;11.580;2024-01-16T12:24:13;94441.00;;;7.60
14023;BMP180;7086;48.116;11.580;2024-01-16T12:26:41;94383.00;;;7.60
14023;BMP180;7086;48.116;11.580;2024-01-16T12:29:14;94350.00;;;7.40
14023;BMP180;7086;48.116;11.580;2024-01-16T12:31:48;94402.00;;;7.50
14023;BMP180;7086;48.116;11.580;2024-01-16T12:34:16;94337.00;;;7.20
14023;BMP180;7086;48.116;11.580;2024-01-16T12:36:44;94432.00;;;7.50
14023;BMP180;7086;48.116;11.580;2024-01-16T12:39:15;94446.00;;;7.40
14023;BMP180;7086;48.116;11.580;2024-01-16T12:42:00;94429.00;;;7.40
14023;BMP180;7086;48.116;11.580;2024-01-16T12:44:45;94332.00;;;7.30
14023;BMP180;7086;48.116;11.580;2024-01-16T12:47:15;94446.00;;;7.50
14023;BMP180;7086;48.116;11.580;2024-01-16T12:49:46;94428.00;;;7.50
14023;BMP180;7086;48.116;11.580;2024-01-16T12:52:18;94330.00;;;7.60
14023;BMP180;7086;48.116;11.580;2024-01-16T12:54:46;94366.00;;;7.70
14023;BMP180;7086;48.116;11.580;2024-01-16T12:57:20;94441.00;;;7.30
14023;BMP180;7086;48.116;11.580;2024-01-16T12:59:53;94450.00;;;7.70
14023;BMP180;7086;48.116;11.580;2024-01-16T13:02:24;94429.00;;;7.90
14023;BMP180;7086;48.116;11.580;2024-01-16T13:05:05;94418.00;;;7.90
14023;BMP180;7086;48.116;11.580;2024-01-16T13:07:37;94314.00;;;7.80
14023;BMP180;7086;48.116;11.580;2024-01-16T13:10:09;94350.00;;;7.80
14023;BMP180;7086;48.116;11.580;2024-01-16T13:12:51;94362.00;;;8.00
14023;BMP180;7086;48.116;11.580;2024-01-16T13:15:22;94406.00;;;7.90
14023;BMP180;7086;48.116;11.580;2024-01-16T13:17:52;94418.00;;;7.70
14023;BMP180;7086;48.116;11.580;2024-01-16T13:20:20;94289.00;;;7.90
14023;BMP180;7086;48.116;11.580;2024-01-16T13:22:48;94305.00;;;7.90
14023;BMP180;7086;48.116;11.580;2024-01-16T13:25:17;94429.00;;;7.70
14023;BMP180;7086;48.116;11.580;2024-01-16T13:27:44;94421.00;;;7.80
14023;BMP180;7086;48.116;11.580;2024-01-16T13:30:15;94372.00;;;7.80
14023;BMP180;7086;48.116;11.580;2024-01-16T13:32:52;94387.00;;;7.40
14023;BMP180;7086;48.116;11.580;2024-01-16T13:35:20;94394.00;;;7.30
14023;BMP180;7086;48.116;11.580;2024-01-16T13:38:06;94415.00;;;7.80
14023;BMP180;7086;48.116;11.580;2024-01-16T13:40:45;94331.00;;;7.80
14023;BMP180;7086;48.116;11.580;2024-01-16T13:43:17;94358.00;;;7.80
14023;BMP180;7086;48.116;11.580;2024-01-16T13:45:47;94268.00;;;7.70
14023;BMP180;7086;48.116;11.580;2024-01-16T13:48:20;94266.00;;;7.70
14023;BMP180;7086;48.116;11.580;2024-01-16T13:50:49;94341.00;;;7.70
14023;BMP180;7086;48.116;11.580;2024-01-16T13:53:17;94285.00;;;7.70
14023;BMP180;7086;48.116;11.580;2024-01-16T13:55:45;94388.00;;;7.70
14023;BMP180;7086;48.116;11.580;2024-01-16T13:58:17;94386.00;;;7.60
14023;BMP180;7086;48.116;11.580;2024-01-16T14:00:46;94390.00;;;7.70
14023;BMP180;7086;48.116;11.580;2024-01-16T14:03:14;94372.00;;;7.60
14023;BMP180;7086;48.116;11.580;2024-01-16T14:05:46;94338.00;;;7.60
14023;BMP180;7086;48.116;11.580;2024-01-16T14:08:15;94299.00;;;7.60
14023;BMP180;7086;48.116;11.580;2024-01-16T14:10:43;94277.00;;;7.60
14023;BMP180;7086;48.116;11.580;2024-01-16T14:13:12;94310.00;;;7.40
14023;BMP180;7086;48.116;11.580;2024-01-16T14:15:41;94433.00;;;7.50
14023;BMP180;7086;48.116;11.580;2024-01-16T14:18:09;94411.00;;;7.50
14023;BMP180;7086;48.116;11.580;2024-01-16T14:20:38;94264.00;;;7.40
14023;BMP180;7086;48.116;11.580;2024-01-16T14:23:10;94308.00;;;7.20
14023;BMP180;7086;48.116;11.580;2024-01-16T14:25:39;94402.00;;;7.30
14023;BMP180;7086;48.116;11.580;2024-01-16T14:28:12;94391.00;;;7.20
14023;BMP180;7086;48.116;11.580;2024-01-16T14:30:42;94415.00;;;7.10
14023;BMP180;7086;48.116;11.580;2024-01-16T14:33:12;94393.00;;;7.10
14023;BMP180;7086;48.116;11.580;2024-01-16T14:35:40;94291.00;;;7.00
14023;BMP180;7086;48.116;11.580;2024-01-16T14:38:12;94386.00;;;7.10
14023;BMP180;7086;48.116;11.580;2024-01-16T14:40:40;94368.00;;;7.10
14023;BMP180;7086;48.116;11.580;2024-01-16T14:43:08;94402.00;;;7.00
14023;BMP180;7086;48.116;11.580;2024-01-16T14:45:43;94415.00;;;7.10
14023;BMP180;7086;48.116;11.580;2024-01-16T14:48:17;94390.00;;;7.10
14023;BMP180;7086;48.116;11.580;2024-01-16T14:50:44;94291.00;;;7.00